This is the latest recevied weather packets stored in our database for station/object SQ6XL-13. If no packets are shown the sender has not sent any weather packets the latest 1 day(s).
| Time | Temp. | Humidity | Pressure | Rain* | Wind** | Luminosity | Snow |
|---|---|---|---|---|---|---|---|
| 1778077677 | 22.22° C | 49% | 1006.3 hPa | 0 mm | - | - | - |
| 1778077112 | 22.22° C | 50% | 1006.3 hPa | 0 mm | - | - | - |
| 1778076612 | 22.22° C | 52% | 1006.5 hPa | 0 mm | - | - | - |
| 1778075542 | 22.78° C | 52% | 1006.7 hPa | 0 mm | - | - | - |
| 1778074987 | 22.22° C | 53% | 1006.8 hPa | 0 mm | - | - | - |
| 1778074452 | 22.78° C | 52% | 1006.9 hPa | 0 mm | - | - | - |
| 1778073967 | 22.78° C | 53% | 1007 hPa | 0 mm | - | - | - |
| 1778073402 | 22.78° C | 51% | 1007.1 hPa | 0 mm | - | - | - |
| 1778072857 | 22.78° C | 50% | 1007.2 hPa | 0 mm | - | - | - |
| 1778072352 | 22.78° C | 51% | 1007.2 hPa | 0 mm | - | - | - |
| 1778071782 | 22.22° C | 52% | 1007.2 hPa | 0 mm | - | - | - |
| 1778071217 | 22.22° C | 53% | 1007.3 hPa | 0 mm | - | - | - |
| 1778070702 | 21.67° C | 54% | 1007.3 hPa | 0 mm | - | - | - |
| 1778070167 | 21.67° C | 54% | 1007.3 hPa | 0 mm | - | - | - |
| 1778069617 | 21.67° C | 54% | 1007.4 hPa | 0 mm | - | - | - |
| 1778069022 | 20.56° C | 57% | 1007.4 hPa | 0 mm | - | - | - |
| 1778067997 | 21.11° C | 57% | 1007.3 hPa | 0 mm | - | - | - |
| 1778067497 | 20.56° C | 58% | 1007.3 hPa | 0 mm | - | - | - |
| 1778066902 | 21.11° C | 58% | 1007.3 hPa | 0 mm | - | - | - |
| 1778066337 | 21.11° C | 59% | 1007.4 hPa | 0 mm | - | - | - |
| 1778065842 | 20.56° C | 61% | 1007.5 hPa | 0 mm | - | - | - |
| 1778065242 | 20.56° C | 63% | 1007.4 hPa | 0 mm | - | - | - |
| 1778064647 | 20° C | 64% | 1007.5 hPa | 0 mm | - | - | - |
| 1778064122 | 19.44° C | 65% | 1007.4 hPa | 0 mm | - | - | - |
| 1778063612 | 20° C | 63% | 1007.5 hPa | 0 mm | - | - | - |
* Rain latest hour (hover to see other rain measurements)
** Current wind speed in m/s (hover to see current wind gust speed)